createdAt,value
2023-02-18T00:01:48.312Z,99.90
2023-02-18T00:04:19.410Z,99.90
2023-02-18T00:06:48.062Z,99.90
2023-02-18T00:09:16.368Z,99.90
2023-02-18T00:11:49.933Z,99.90
2023-02-18T00:14:18.828Z,99.90
2023-02-18T00:16:48.636Z,99.90
2023-02-18T00:19:20.029Z,99.90
2023-02-18T00:21:48.586Z,99.90
2023-02-18T00:24:17.899Z,99.90
2023-02-18T00:26:46.929Z,99.90
2023-02-18T00:29:15.504Z,99.90
2023-02-18T00:31:44.362Z,99.90
2023-02-18T00:34:15.079Z,99.90
2023-02-18T00:36:43.826Z,99.90
2023-02-18T00:39:13.466Z,99.90
2023-02-18T00:41:42.949Z,99.90
2023-02-18T00:44:12.009Z,99.90
2023-02-18T00:46:40.357Z,99.90
2023-02-18T00:49:09.710Z,99.90
2023-02-18T00:51:39.758Z,99.90
2023-02-18T00:54:09.301Z,99.90
2023-02-18T00:56:37.801Z,99.90
2023-02-18T00:59:09.203Z,99.90
2023-02-18T01:01:37.458Z,99.90
2023-02-18T01:04:06.304Z,99.90
2023-02-18T01:06:34.692Z,99.90
2023-02-18T01:09:07.105Z,99.90
2023-02-18T01:11:35.785Z,99.90
2023-02-18T01:14:10.481Z,99.90
2023-02-18T01:16:38.789Z,99.90
2023-02-18T01:19:12.275Z,99.90
2023-02-18T01:21:40.593Z,99.90
2023-02-18T01:24:11.248Z,99.90
2023-02-18T01:26:40.480Z,99.90
2023-02-18T01:29:10.657Z,99.90
2023-02-18T01:31:39.214Z,99.90
2023-02-18T01:34:07.688Z,99.90
2023-02-18T01:36:36.079Z,99.90
2023-02-18T01:39:04.556Z,99.90
2023-02-18T01:41:34.985Z,99.90
2023-02-18T01:44:14.745Z,99.90
2023-02-18T01:46:46.405Z,99.90
2023-02-18T01:49:19.186Z,99.90
2023-02-18T01:51:52.271Z,99.90
2023-02-18T01:54:26.143Z,99.90
2023-02-18T01:57:02.918Z,99.90
2023-02-18T01:59:36.563Z,99.90
2023-02-18T02:02:07.789Z,99.90
2023-02-18T02:04:37.871Z,99.90
2023-02-18T02:07:06.259Z,99.90
2023-02-18T02:09:36.409Z,99.90
2023-02-18T02:12:33.960Z,99.90
2023-02-18T02:15:15.434Z,99.90
2023-02-18T02:18:06.880Z,99.90
2023-02-18T02:21:08.007Z,99.90
2023-02-18T02:24:07.593Z,99.90
2023-02-18T02:27:15.715Z,99.90
2023-02-18T02:30:02.095Z,99.90
2023-02-18T02:32:59.139Z,99.90
2023-02-18T02:35:32.940Z,99.90
2023-02-18T02:38:06.346Z,99.90
2023-02-18T02:40:39.829Z,99.90
2023-02-18T02:43:18.329Z,99.90
2023-02-18T02:45:55.826Z,99.90
2023-02-18T02:48:38.144Z,99.90
2023-02-18T02:51:12.635Z,99.90
2023-02-18T02:53:46.349Z,99.90
2023-02-18T02:56:20.434Z,99.90
2023-02-18T02:58:59.522Z,99.90
2023-02-18T03:01:44.502Z,99.90
2023-02-18T03:04:33.091Z,99.90
2023-02-18T03:07:45.198Z,99.90
2023-02-18T03:10:27.281Z,99.90
2023-02-18T03:13:01.529Z,99.90
2023-02-18T03:15:47.117Z,99.90
2023-02-18T03:18:20.876Z,99.90
2023-02-18T03:20:56.128Z,99.90
2023-02-18T03:23:30.454Z,99.90
2023-02-18T03:26:00.521Z,99.90
2023-02-18T03:28:32.573Z,99.90
2023-02-18T03:31:09.386Z,99.90
2023-02-18T03:33:41.710Z,99.90
2023-02-18T03:36:12.543Z,99.90
2023-02-18T03:38:46.828Z,99.90
2023-02-18T03:41:15.317Z,99.90
2023-02-18T03:43:51.504Z,99.90
2023-02-18T03:46:21.628Z,99.90
2023-02-18T03:48:50.227Z,99.90
2023-02-18T03:51:22.319Z,99.90
2023-02-18T03:53:52.145Z,99.90
2023-02-18T03:56:21.125Z,99.90
2023-02-18T03:58:54.801Z,99.90
2023-02-18T04:01:23.490Z,99.90
2023-02-18T04:03:55.527Z,99.90
2023-02-18T04:06:26.030Z,99.90
2023-02-18T04:09:09.234Z,99.90
2023-02-18T04:11:39.381Z,99.90
2023-02-18T04:14:11.436Z,99.90
2023-02-18T04:16:40.349Z,99.90
2023-02-18T04:19:08.819Z,99.90
2023-02-18T04:21:37.191Z,99.90
2023-02-18T04:24:07.385Z,99.90
2023-02-18T04:26:35.768Z,99.90
2023-02-18T04:29:04.506Z,99.90
2023-02-18T04:31:32.915Z,99.90
2023-02-18T04:34:01.655Z,99.90
2023-02-18T04:36:29.960Z,99.90
2023-02-18T04:38:58.334Z,99.90
2023-02-18T04:41:28.204Z,99.90
2023-02-18T04:43:56.498Z,99.90
2023-02-18T04:46:26.130Z,99.90
2023-02-18T04:48:54.927Z,99.90
2023-02-18T04:51:23.315Z,99.90
2023-02-18T04:53:51.799Z,99.90
2023-02-18T04:56:20.663Z,99.90
2023-02-18T04:58:50.431Z,99.90
2023-02-18T05:01:20.770Z,99.90
2023-02-18T05:03:49.134Z,99.90
2023-02-18T05:06:18.011Z,99.90
2023-02-18T05:08:46.444Z,99.90
2023-02-18T05:11:14.724Z,99.90
2023-02-18T05:13:43.035Z,99.90
2023-02-18T05:16:12.889Z,99.90
2023-02-18T05:18:41.206Z,99.90
2023-02-18T05:21:09.945Z,99.90
2023-02-18T05:23:38.321Z,99.90
2023-02-18T05:26:07.057Z,99.90
2023-02-18T05:28:37.857Z,99.90
2023-02-18T05:31:06.515Z,99.90
2023-02-18T05:33:36.266Z,99.90
2023-02-18T05:36:04.747Z,99.90
2023-02-18T05:38:33.495Z,99.90
2023-02-18T05:41:01.756Z,99.90
2023-02-18T05:43:30.244Z,99.90
2023-02-18T05:45:58.683Z,99.90
2023-02-18T05:48:27.187Z,99.90
2023-02-18T05:50:59.540Z,99.90
2023-02-18T05:53:28.291Z,99.90
2023-02-18T05:55:56.565Z,99.90
2023-02-18T05:58:27.275Z,99.90
2023-02-18T06:00:55.554Z,99.90
2023-02-18T06:03:23.787Z,99.90
2023-02-18T06:05:52.748Z,99.90
2023-02-18T06:08:22.997Z,99.90
2023-02-18T06:10:59.058Z,99.90
2023-02-18T06:13:27.434Z,99.90
2023-02-18T06:15:55.878Z,99.90
2023-02-18T06:18:26.910Z,99.90
2023-02-18T06:20:55.303Z,99.90
2023-02-18T06:23:24.881Z,99.90
2023-02-18T06:25:56.238Z,99.90
2023-02-18T06:28:24.693Z,99.90
2023-02-18T06:30:52.959Z,99.90
2023-02-18T06:33:21.265Z,99.90
2023-02-18T06:35:56.587Z,99.90
2023-02-18T06:38:26.932Z,99.90
2023-02-18T06:40:56.876Z,99.90
2023-02-18T06:43:25.108Z,99.90
2023-02-18T06:45:56.122Z,99.90
2023-02-18T06:48:24.944Z,99.90
2023-02-18T06:50:53.617Z,99.90
2023-02-18T06:53:22.027Z,99.90
2023-02-18T06:55:53.707Z,99.90
2023-02-18T06:58:23.342Z,99.90
2023-02-18T07:00:53.646Z,99.90
2023-02-18T07:03:22.099Z,99.90
2023-02-18T07:05:50.418Z,99.90
2023-02-18T07:08:19.211Z,99.90
2023-02-18T07:10:48.157Z,99.90
2023-02-18T07:13:17.883Z,99.90
2023-02-18T07:15:46.217Z,99.90
2023-02-18T07:18:14.621Z,99.90
2023-02-18T07:20:45.710Z,99.90
2023-02-18T07:23:14.039Z,99.90
2023-02-18T07:25:42.532Z,99.90
2023-02-18T07:28:13.091Z,99.90
2023-02-18T07:30:42.842Z,99.90
2023-02-18T07:33:11.251Z,99.90
2023-02-18T07:35:39.997Z,99.90
2023-02-18T07:38:08.394Z,99.90
2023-02-18T07:40:36.779Z,99.90
2023-02-18T07:43:05.226Z,99.90
2023-02-18T07:45:33.843Z,99.90
2023-02-18T07:48:05.541Z,99.90
2023-02-18T07:50:37.029Z,99.90
2023-02-18T07:53:06.237Z,99.90
2023-02-18T07:55:48.570Z,99.90
2023-02-18T07:58:17.213Z,99.90
2023-02-18T08:00:47.634Z,99.90
2023-02-18T08:03:26.128Z,99.90
2023-02-18T08:05:54.989Z,99.90
2023-02-18T08:08:26.442Z,99.80
2023-02-18T08:10:56.516Z,99.90
2023-02-18T08:13:24.812Z,99.90
2023-02-18T08:15:56.475Z,99.60
2023-02-18T08:18:29.106Z,99.50
2023-02-18T08:20:57.690Z,99.90
2023-02-18T08:23:26.471Z,99.90
2023-02-18T08:25:55.568Z,99.90
2023-02-18T08:28:25.596Z,99.90
2023-02-18T08:30:56.203Z,99.90
2023-02-18T08:33:26.786Z,99.90
2023-02-18T08:35:56.565Z,99.90
2023-02-18T08:38:25.922Z,99.50
2023-02-18T08:41:06.972Z,98.80
2023-02-18T08:43:35.592Z,98.40
2023-02-18T08:46:07.525Z,98.90
2023-02-18T08:48:37.449Z,99.20
2023-02-18T08:51:13.941Z,99.40
2023-02-18T08:53:45.553Z,98.30
2023-02-18T08:56:15.791Z,98.40
2023-02-18T08:58:44.322Z,98.80
2023-02-18T09:01:16.267Z,98.50
2023-02-18T09:03:45.925Z,98.40
2023-02-18T09:06:14.339Z,98.30
2023-02-18T09:08:42.872Z,98.30
2023-02-18T09:11:12.566Z,98.80
2023-02-18T09:13:41.651Z,97.40
2023-02-18T09:16:14.187Z,98.60
2023-02-18T09:18:43.004Z,97.70
2023-02-18T09:21:14.466Z,97.80
2023-02-18T09:23:43.119Z,97.70
2023-02-18T09:26:15.377Z,98.30
2023-02-18T09:28:43.961Z,97.80
2023-02-18T09:31:16.320Z,98.10
2023-02-18T09:33:48.141Z,97.90
2023-02-18T09:36:21.638Z,97.10
2023-02-18T09:38:53.528Z,97.80
2023-02-18T09:41:31.548Z,98.50
2023-02-18T09:44:03.521Z,97.10
2023-02-18T09:46:37.847Z,97.00
2023-02-18T09:49:15.729Z,97.40
2023-02-18T09:51:51.271Z,97.40
2023-02-18T09:54:21.391Z,97.40
2023-02-18T09:56:50.765Z,98.20
2023-02-18T09:59:25.035Z,96.60
2023-02-18T10:01:54.692Z,97.60
2023-02-18T10:04:33.346Z,97.60
2023-02-18T10:07:04.552Z,98.00
2023-02-18T10:09:39.635Z,97.00
2023-02-18T10:12:16.646Z,97.20
2023-02-18T10:14:49.778Z,96.70
2023-02-18T10:17:22.184Z,97.20
2023-02-18T10:19:52.434Z,97.60
2023-02-18T10:22:25.411Z,96.20
2023-02-18T10:24:56.658Z,97.20
2023-02-18T10:27:30.107Z,96.30
2023-02-18T10:30:02.371Z,96.60
2023-02-18T10:32:38.340Z,96.00
2023-02-18T10:35:17.317Z,97.60
2023-02-18T10:37:58.637Z,96.20
2023-02-18T10:40:38.952Z,96.50
2023-02-18T10:43:19.709Z,95.50
2023-02-18T10:45:55.802Z,96.60
2023-02-18T10:48:53.929Z,95.50
2023-02-18T10:51:27.236Z,96.30
2023-02-18T10:53:57.441Z,97.10
2023-02-18T10:56:40.467Z,96.70
2023-02-18T10:59:14.669Z,95.80
2023-02-18T11:01:47.491Z,95.50
2023-02-18T11:04:31.887Z,95.80
2023-02-18T11:07:06.419Z,95.90
2023-02-18T11:09:44.429Z,96.90
2023-02-18T11:12:18.836Z,96.80
2023-02-18T11:14:49.063Z,96.40
2023-02-18T11:17:22.594Z,96.00
2023-02-18T11:20:07.614Z,96.10
2023-02-18T11:22:47.494Z,95.90
2023-02-18T11:25:23.482Z,95.80
2023-02-18T11:27:54.574Z,96.20
2023-02-18T11:30:25.862Z,96.10
2023-02-18T11:33:00.840Z,96.70
2023-02-18T11:35:33.122Z,95.80
2023-02-18T11:38:03.379Z,95.50
2023-02-18T11:40:35.675Z,95.80
2023-02-18T11:43:15.483Z,96.80
2023-02-18T11:45:48.737Z,96.10
2023-02-18T11:48:19.350Z,96.70
2023-02-18T11:50:53.676Z,95.90
2023-02-18T11:53:32.240Z,96.50
2023-02-18T11:56:05.061Z,96.30
2023-02-18T11:58:39.851Z,96.50
2023-02-18T12:01:14.209Z,95.70
2023-02-18T12:04:03.577Z,95.70
2023-02-18T12:06:35.557Z,95.00
2023-02-18T12:09:08.386Z,94.70
2023-02-18T12:11:41.952Z,95.20
2023-02-18T12:14:20.673Z,95.40
2023-02-18T12:17:06.264Z,95.10
2023-02-18T12:19:53.134Z,95.40
2023-02-18T12:22:31.965Z,95.10
2023-02-18T12:25:17.569Z,95.50
2023-02-18T12:27:56.241Z,95.90
2023-02-18T12:30:42.159Z,96.10
2023-02-18T12:33:20.819Z,95.00
2023-02-18T12:36:01.472Z,94.80
2023-02-18T12:39:01.371Z,95.10
2023-02-18T12:41:42.688Z,94.30
2023-02-18T12:44:27.757Z,94.60
2023-02-18T12:47:18.150Z,94.70
2023-02-18T12:50:31.165Z,94.30
2023-02-18T12:53:12.331Z,93.80
2023-02-18T12:55:52.949Z,94.20
2023-02-18T12:58:33.698Z,94.20
2023-02-18T13:01:14.335Z,94.30
2023-02-18T13:04:17.794Z,94.80
2023-02-18T13:07:18.070Z,94.50
2023-02-18T13:10:02.374Z,95.40
2023-02-18T13:12:45.883Z,95.10
2023-02-18T13:15:20.655Z,95.60
2023-02-18T13:17:58.547Z,95.40
2023-02-18T13:20:37.351Z,95.60
2023-02-18T13:23:14.399Z,94.80
2023-02-18T13:25:42.812Z,95.20
2023-02-18T13:28:19.378Z,95.90
2023-02-18T13:30:52.087Z,95.60
2023-02-18T13:33:37.534Z,96.40
2023-02-18T13:36:14.564Z,95.60
2023-02-18T13:39:03.318Z,95.90
2023-02-18T13:41:38.204Z,96.10
2023-02-18T13:44:41.292Z,97.40
2023-02-18T13:47:11.170Z,96.00
2023-02-18T13:49:45.604Z,96.50
2023-02-18T13:52:21.388Z,96.70
2023-02-18T13:54:51.974Z,97.10
2023-02-18T13:57:23.307Z,97.30
2023-02-18T13:59:54.168Z,97.10
2023-02-18T14:02:34.557Z,96.90
2023-02-18T14:05:26.739Z,96.70
2023-02-18T14:08:13.918Z,96.30
2023-02-18T14:10:44.848Z,97.10
2023-02-18T14:13:39.376Z,97.00
2023-02-18T14:16:09.888Z,96.90
2023-02-18T14:18:58.733Z,97.10
2023-02-18T14:21:44.356Z,97.30
2023-02-18T14:24:14.223Z,97.10
2023-02-18T14:26:48.025Z,97.40
2023-02-18T14:29:22.145Z,97.30
2023-02-18T14:31:54.703Z,97.70
2023-02-18T14:35:07.313Z,97.50
2023-02-18T14:38:02.808Z,97.20
2023-02-18T14:40:59.832Z,97.10
2023-02-18T14:43:49.651Z,97.00
2023-02-18T14:46:29.803Z,97.90
2023-02-18T14:49:18.249Z,97.90
2023-02-18T14:51:49.085Z,98.50
2023-02-18T14:54:22.782Z,98.20
2023-02-18T14:57:18.553Z,98.90
2023-02-18T14:59:48.473Z,98.80
2023-02-18T15:02:21.715Z,99.90
2023-02-18T15:04:56.280Z,99.90
2023-02-18T15:07:24.653Z,99.90
2023-02-18T15:09:56.487Z,99.90
2023-02-18T15:12:26.573Z,99.90
2023-02-18T15:15:04.852Z,99.90
2023-02-18T15:17:34.004Z,99.90
2023-02-18T15:20:09.009Z,99.90
2023-02-18T15:22:37.548Z,99.90
2023-02-18T15:25:17.203Z,99.90
2023-02-18T15:27:47.113Z,99.90
2023-02-18T15:30:25.196Z,99.90
2023-02-18T15:32:55.344Z,99.90
2023-02-18T15:35:29.261Z,99.90
2023-02-18T15:37:59.089Z,99.90
2023-02-18T15:40:32.537Z,99.90
2023-02-18T15:43:03.515Z,99.90
2023-02-18T15:45:34.310Z,99.90
2023-02-18T15:48:03.462Z,99.90
2023-02-18T15:50:34.564Z,99.90
2023-02-18T15:53:07.930Z,99.90
2023-02-18T15:55:40.618Z,99.90
2023-02-18T15:58:13.294Z,99.90
2023-02-18T16:00:49.079Z,99.90
2023-02-18T16:03:21.684Z,99.90
2023-02-18T16:05:51.014Z,99.90
2023-02-18T16:08:28.204Z,99.90
2023-02-18T16:11:03.181Z,99.90
2023-02-18T16:13:32.905Z,99.90
2023-02-18T16:16:01.906Z,99.90
2023-02-18T16:18:32.635Z,99.90
2023-02-18T16:21:03.394Z,99.90
2023-02-18T16:23:37.845Z,99.90
2023-02-18T16:26:44.679Z,99.90
2023-02-18T16:29:15.377Z,99.90
2023-02-18T16:31:43.954Z,99.90
2023-02-18T16:34:12.330Z,99.90
2023-02-18T16:37:02.911Z,99.90
2023-02-18T16:39:34.387Z,99.90
2023-02-18T16:42:04.116Z,99.90
2023-02-18T16:44:33.755Z,99.90
2023-02-18T16:47:02.496Z,99.90
2023-02-18T16:49:35.644Z,99.90
2023-02-18T16:52:09.544Z,99.90
2023-02-18T16:54:38.109Z,99.90
2023-02-18T16:57:07.939Z,99.90
2023-02-18T16:59:36.343Z,99.90
2023-02-18T17:02:04.998Z,99.90
2023-02-18T17:04:33.719Z,99.90
2023-02-18T17:07:03.769Z,99.90
2023-02-18T17:09:32.024Z,99.90
2023-02-18T17:12:02.046Z,99.90
2023-02-18T17:14:32.203Z,99.90
2023-02-18T17:17:00.638Z,99.90
2023-02-18T17:19:28.981Z,99.90
2023-02-18T17:21:57.310Z,99.90
2023-02-18T17:24:25.553Z,99.90
2023-02-18T17:26:56.264Z,99.90
2023-02-18T17:29:24.493Z,99.90
2023-02-18T17:31:59.933Z,99.90
2023-02-18T17:34:32.877Z,99.90
2023-02-18T17:37:01.203Z,99.90
2023-02-18T17:39:29.974Z,99.90
2023-02-18T17:41:58.426Z,99.90
2023-02-18T17:44:27.775Z,99.90
2023-02-18T17:46:57.558Z,99.90
2023-02-18T17:49:25.863Z,99.90
2023-02-18T17:51:55.169Z,99.90
2023-02-18T17:54:25.739Z,99.90
2023-02-18T17:56:56.031Z,99.90
2023-02-18T17:59:24.392Z,99.90
2023-02-18T18:01:52.773Z,99.90
2023-02-18T18:04:22.405Z,99.90
2023-02-18T18:06:51.286Z,99.90
2023-02-18T18:09:19.877Z,99.90
2023-02-18T18:11:48.263Z,99.90
2023-02-18T18:14:16.519Z,99.90
2023-02-18T18:16:44.806Z,99.90
2023-02-18T18:19:13.227Z,99.90
2023-02-18T18:21:43.120Z,99.90
2023-02-18T18:24:13.673Z,99.90
2023-02-18T18:26:42.009Z,99.90
2023-02-18T18:29:10.360Z,99.90
2023-02-18T18:31:39.341Z,99.90
2023-02-18T18:34:07.735Z,99.90
2023-02-18T18:36:36.095Z,99.90
2023-02-18T18:39:05.829Z,99.90
2023-02-18T18:41:34.429Z,99.90
2023-02-18T18:44:15.031Z,99.90
2023-02-18T18:46:43.822Z,99.90
2023-02-18T18:49:13.334Z,99.90
2023-02-18T18:51:41.935Z,99.90
2023-02-18T18:54:14.025Z,99.90
2023-02-18T18:57:08.993Z,99.90
2023-02-18T18:59:37.371Z,99.90
2023-02-18T19:02:08.414Z,99.90
2023-02-18T19:04:41.680Z,99.90
2023-02-18T19:07:10.213Z,99.90
2023-02-18T19:09:40.864Z,99.90
2023-02-18T19:12:10.846Z,99.90
2023-02-18T19:14:42.184Z,99.90
2023-02-18T19:17:11.980Z,99.90
2023-02-18T19:19:42.497Z,99.90
2023-02-18T19:22:11.025Z,99.90
2023-02-18T19:24:42.195Z,99.90
2023-02-18T19:27:10.765Z,99.90
2023-02-18T19:29:39.233Z,99.90
2023-02-18T19:32:07.728Z,99.90
2023-02-18T19:34:36.420Z,99.90
2023-02-18T19:37:06.944Z,99.90
2023-02-18T19:39:37.059Z,99.90
2023-02-18T19:42:07.294Z,99.90
2023-02-18T19:44:36.106Z,99.90
2023-02-18T19:47:04.833Z,99.90
2023-02-18T19:49:33.519Z,99.90
2023-02-18T19:52:10.173Z,99.90
2023-02-18T19:54:46.267Z,99.90
2023-02-18T19:57:16.567Z,99.90
2023-02-18T19:59:45.780Z,99.90
2023-02-18T20:02:16.365Z,99.90
2023-02-18T20:04:51.730Z,99.90
2023-02-18T20:07:21.870Z,99.90
2023-02-18T20:09:54.207Z,99.90
2023-02-18T20:12:25.044Z,99.90
2023-02-18T20:14:56.997Z,99.90
2023-02-18T20:17:26.228Z,99.90
2023-02-18T20:19:54.559Z,99.90
2023-02-18T20:22:23.201Z,99.90
2023-02-18T20:24:52.737Z,99.90
2023-02-18T20:27:29.405Z,99.90
2023-02-18T20:30:23.192Z,99.90
2023-02-18T20:32:51.898Z,99.90
2023-02-18T20:35:20.514Z,99.90
2023-02-18T20:37:52.044Z,99.90
2023-02-18T20:40:37.280Z,99.90
2023-02-18T20:43:07.257Z,99.90
2023-02-18T20:45:35.817Z,99.90
2023-02-18T20:48:14.767Z,99.90
2023-02-18T20:50:46.191Z,99.90
2023-02-18T20:53:14.895Z,99.90
2023-02-18T20:55:48.329Z,99.90
2023-02-18T20:58:34.500Z,99.90
2023-02-18T21:01:05.756Z,99.90
2023-02-18T21:03:40.317Z,99.90
2023-02-18T21:06:14.378Z,99.90
2023-02-18T21:08:46.275Z,99.90
2023-02-18T21:11:16.960Z,99.90
2023-02-18T21:13:56.834Z,99.90
2023-02-18T21:16:26.633Z,99.90
2023-02-18T21:18:58.562Z,99.90
2023-02-18T21:21:27.728Z,99.90
2023-02-18T21:23:58.844Z,99.90
2023-02-18T21:26:30.203Z,99.90
2023-02-18T21:29:06.473Z,99.90
2023-02-18T21:31:36.755Z,99.90
2023-02-18T21:34:15.627Z,99.90
2023-02-18T21:36:44.800Z,99.90
2023-02-18T21:39:13.390Z,99.90
2023-02-18T21:41:41.981Z,99.90
2023-02-18T21:44:16.111Z,99.90
2023-02-18T21:46:44.673Z,99.90
2023-02-18T21:49:13.381Z,99.90
2023-02-18T21:52:00.517Z,99.90
2023-02-18T21:54:31.843Z,99.90
2023-02-18T21:57:03.923Z,99.90
2023-02-18T21:59:36.140Z,99.90
2023-02-18T22:02:05.988Z,99.90
2023-02-18T22:04:39.728Z,99.90
2023-02-18T22:07:10.482Z,99.90
2023-02-18T22:09:40.570Z,99.90
2023-02-18T22:12:09.620Z,99.90
2023-02-18T22:14:39.963Z,99.90
2023-02-18T22:17:08.508Z,99.90
2023-02-18T22:19:36.925Z,99.90
2023-02-18T22:22:08.002Z,99.90
2023-02-18T22:24:36.690Z,99.90
2023-02-18T22:27:05.405Z,99.90
2023-02-18T22:29:34.672Z,99.90
2023-02-18T22:32:34.841Z,99.90
2023-02-18T22:35:05.991Z,99.90
2023-02-18T22:37:43.918Z,99.90
2023-02-18T22:40:12.749Z,99.90
2023-02-18T22:42:41.235Z,99.90
2023-02-18T22:45:10.104Z,99.90
2023-02-18T22:47:38.552Z,99.90
2023-02-18T22:50:09.872Z,99.90
2023-02-18T22:52:39.773Z,99.90
2023-02-18T22:55:08.648Z,99.90
2023-02-18T22:57:37.439Z,99.90
2023-02-18T23:00:11.377Z,99.90
2023-02-18T23:02:39.934Z,99.90
2023-02-18T23:05:10.280Z,99.90
2023-02-18T23:07:41.808Z,99.90
2023-02-18T23:10:10.451Z,99.90
2023-02-18T23:12:38.884Z,99.90
2023-02-18T23:15:07.731Z,99.90
2023-02-18T23:17:36.131Z,99.90
2023-02-18T23:20:05.240Z,99.90
2023-02-18T23:22:35.603Z,99.90
2023-02-18T23:25:05.170Z,99.90
2023-02-18T23:27:33.543Z,99.90
2023-02-18T23:30:02.171Z,99.90
2023-02-18T23:32:33.661Z,99.90
2023-02-18T23:35:02.022Z,99.90
2023-02-18T23:37:47.965Z,99.90
2023-02-18T23:40:19.761Z,99.90
2023-02-18T23:42:48.078Z,99.90
2023-02-18T23:45:18.184Z,99.90
2023-02-18T23:47:46.879Z,99.90
2023-02-18T23:50:16.392Z,99.90
2023-02-18T23:52:44.837Z,99.90
2023-02-18T23:55:13.143Z,99.90
2023-02-18T23:57:43.602Z,99.90
